| Date | Time | Temp. (oF) | Dew Point (oF) | Rel. Hum. (%) | Press. (in.) | Wind Dir. | Wind Speed (mph) | Hourly Rainfall (in.) |
|
|---|---|---|---|---|---|---|---|---|---|
| 1 | 08/14 | 00:00 | 67 | 66 | 97 | 30.09 | E | 2 | 0.00 |
| 2 | 08/13 | 23:00 | 68 | 67 | 99 | 30.07 | ESE | 2 | 0.00 |
| 3 | 08/13 | 22:00 | 69 | 68 | 98 | 30.05 | WSW | 0 | 0.00 |
| 4 | 08/13 | 21:00 | 69 | 68 | 97 | 30.04 | WSW | 0 | 0.00 |
| 5 | 08/13 | 20:00 | 70 | 68 | 96 | 30.04 | WSW | 0 | 0.00 |
| 6 | 08/13 | 19:00 | 70 | 68 | 95 | 30.04 | W | 1 | 0.00 |
| 7 | 08/13 | 18:00 | 71 | 69 | 95 | 30.04 | W | 0 | 0.00 |
| 8 | 08/13 | 17:00 | 70 | 68 | 95 | 30.04 | SW | 2 | 0.00 |
| 9 | 08/13 | 16:00 | 69 | 67 | 96 | 30.05 | SSW | 5 | 0.01 |
| 10 | 08/13 | 15:00 | 69 | 68 | 97 | 30.06 | SE | 0 | 0.10 |
| 11 | 08/13 | 14:00 | 69 | 67 | 95 | 30.05 | NNE | 6 | 0.08 |
| 12 | 08/13 | 13:00 | 73 | 67 | 83 | 30.04 | E | 0 | 0.00 |
| 13 | 08/13 | 12:00 | 73 | 67 | 84 | 30.04 | ENE | 8 | 0.00 |
| 14 | 08/13 | 11:00 | 73 | 68 | 87 | 30.03 | S | 6 | 0.00 |
| 15 | 08/13 | 10:00 | 71 | 68 | 91 | 30.01 | E | 4 | 0.00 |
| 16 | 08/13 | 09:00 | 69 | 67 | 95 | 29.99 | ESE | 4 | 0.00 |
| 17 | 08/13 | 08:00 | 69 | 67 | 96 | 29.98 | E | 3 | 0.01 |
| 18 | 08/13 | 07:00 | 69 | 67 | 94 | 29.96 | SE | 6 | 0.00 |
| 19 | 08/13 | 06:00 | 70 | 68 | 94 | 29.94 | ENE | 4 | 0.00 |
| 20 | 08/13 | 05:00 | 70 | 68 | 94 | 29.92 | E | 5 | 0.00 |
| 21 | 08/13 | 04:00 | 70 | 68 | 94 | 29.91 | ESE | 5 | 0.00 |
| 22 | 08/13 | 03:00 | 70 | 68 | 94 | 29.90 | NNE | 4 | 0.00 |
| 23 | 08/13 | 02:00 | 70 | 68 | 94 | 29.90 | ENE | 7 | 0.00 |
| 24 | 08/13 | 01:00 | 70 | 68 | 94 | 29.90 | ESE | 4 | 0.00 |